Time,TemperatureF,DewpointF,PressureIn,WindDirection,WindDirectionDegrees,WindSpeedMPH,WindSpeedGustMPH,Humidity,HourlyPrecipIn,Conditions,Clouds,dailyrainin,SolarRadiationWatts/m^2,SoftwareType,DateUTC
2013-06-17 00:02:00,56.0,55.0,-100.00,ESE,119,3.0,6.0,97,0.00,,,0.16,0.000000,,2013-06-17 05:02:00,
2013-06-17 00:22:00,56.0,55.0,-100.00,ESE,119,3.0,6.0,97,0.00,,,0.16,0.000000,,2013-06-17 05:22:00,
2013-06-17 00:33:00,56.0,55.0,-100.00,ESE,119,3.0,6.0,97,0.00,,,0.16,0.000000,,2013-06-17 05:33:00,
2013-06-17 00:44:00,56.0,55.0,-100.00,ESE,119,3.0,6.0,97,0.00,,,0.16,0.000000,,2013-06-17 05:44:00,
2013-06-17 00:53:00,56.0,55.0,-100.00,ESE,119,3.0,6.0,97,0.00,,,0.16,0.000000,,2013-06-17 05:53:00,
2013-06-17 01:02:00,53.0,52.0,-100.00,SSW,193,2.0,4.0,98,0.00,,,0.16,0.000000,,2013-06-17 06:02:00,
2013-06-17 01:22:00,53.0,52.0,-100.00,SSW,193,2.0,4.0,98,0.00,,,0.16,0.000000,,2013-06-17 06:22:00,
2013-06-17 01:33:00,53.0,52.0,-100.00,SSW,193,2.0,4.0,98,0.00,,,0.16,0.000000,,2013-06-17 06:33:00,
2013-06-17 01:43:00,53.0,52.0,-100.00,SSW,193,2.0,4.0,98,0.00,,,0.16,0.000000,,2013-06-17 06:43:00,
2013-06-17 01:53:00,53.0,52.0,-100.00,SSW,193,2.0,4.0,98,0.00,,,0.16,0.000000,,2013-06-17 06:53:00,
2013-06-17 02:02:00,52.0,52.0,-100.00,ESE,109,1.0,3.0,99,0.00,,,0.16,0.000000,,2013-06-17 07:02:00,
2013-06-17 02:22:00,52.0,52.0,-100.00,ESE,109,1.0,3.0,99,0.00,,,0.16,0.000000,,2013-06-17 07:22:00,
2013-06-17 02:33:00,52.0,52.0,-100.00,ESE,109,1.0,3.0,99,0.00,,,0.16,0.000000,,2013-06-17 07:33:00,
2013-06-17 02:43:00,52.0,52.0,-100.00,ESE,109,1.0,3.0,99,0.00,,,0.16,0.000000,,2013-06-17 07:43:00,
2013-06-17 02:53:00,52.0,52.0,-100.00,ESE,109,1.0,3.0,99,0.00,,,0.16,0.000000,,2013-06-17 07:53:00,
2013-06-17 03:02:00,52.0,52.0,-100.00,SW,232,1.0,4.0,100,0.00,,,0.15,0.000000,,2013-06-17 08:02:00,
2013-06-17 03:22:00,52.0,52.0,-100.00,SW,232,1.0,4.0,100,0.00,,,0.15,0.000000,,2013-06-17 08:22:00,
2013-06-17 03:34:00,52.0,52.0,-100.00,SW,232,1.0,4.0,100,0.00,,,0.15,0.000000,,2013-06-17 08:34:00,
2013-06-17 03:43:00,52.0,52.0,-100.00,SW,232,1.0,4.0,100,0.00,,,0.15,0.000000,,2013-06-17 08:43:00,
2013-06-17 03:53:00,52.0,52.0,-100.00,SW,232,1.0,4.0,100,0.00,,,0.15,0.000000,,2013-06-17 08:53:00,
2013-06-17 04:02:00,51.0,51.0,-100.00,East,81,1.0,4.0,100,0.00,,,0.15,0.000000,,2013-06-17 09:02:00,
2013-06-17 04:22:00,51.0,51.0,-100.00,East,81,1.0,4.0,100,0.00,,,0.15,0.000000,,2013-06-17 09:22:00,
2013-06-17 04:34:00,51.0,51.0,-100.00,East,81,1.0,4.0,100,0.00,,,0.15,0.000000,,2013-06-17 09:34:00,
2013-06-17 04:44:00,51.0,51.0,-100.00,East,81,1.0,4.0,100,0.00,,,0.15,0.000000,,2013-06-17 09:44:00,
2013-06-17 04:53:00,51.0,51.0,-100.00,East,81,1.0,4.0,100,0.00,,,0.15,0.000000,,2013-06-17 09:53:00,
2013-06-17 05:02:00,48.0,48.0,-100.00,ENE,77,0.0,3.0,99,0.00,,,0.15,0.000000,,2013-06-17 10:02:00,
2013-06-17 05:22:00,48.0,48.0,-100.00,ENE,77,0.0,3.0,99,0.00,,,0.15,0.000000,,2013-06-17 10:22:00,
2013-06-17 05:33:00,48.0,48.0,-100.00,ENE,77,0.0,3.0,99,0.00,,,0.15,0.000000,,2013-06-17 10:33:00,
2013-06-17 05:43:00,48.0,48.0,-100.00,ENE,77,0.0,3.0,99,0.00,,,0.15,0.000000,,2013-06-17 10:43:00,
2013-06-17 05:54:00,48.0,48.0,-100.00,ENE,77,0.0,3.0,99,0.00,,,0.15,0.000000,,2013-06-17 10:54:00,
2013-06-17 06:02:00,52.0,52.0,-100.00,North,355,3.0,7.0,100,0.00,,,0.15,10.000000,,2013-06-17 11:02:00,
2013-06-17 06:23:00,52.0,52.0,-100.00,North,355,3.0,7.0,100,0.00,,,0.15,10.000000,,2013-06-17 11:23:00,
2013-06-17 06:33:00,52.0,52.0,-100.00,North,355,3.0,7.0,100,0.00,,,0.15,10.000000,,2013-06-17 11:33:00,
2013-06-17 06:43:00,52.0,52.0,-100.00,North,355,3.0,7.0,100,0.00,,,0.15,10.000000,,2013-06-17 11:43:00,
2013-06-17 06:53:00,52.0,52.0,-100.00,North,355,3.0,7.0,100,0.00,,,0.15,10.000000,,2013-06-17 11:53:00,
2013-06-17 07:23:00,53.0,53.0,-100.00,NE,56,2.0,9.0,100,0.01,,,0.16,62.000000,,2013-06-17 12:23:00,
2013-06-17 07:33:00,53.0,53.0,-100.00,NE,56,2.0,9.0,100,0.01,,,0.16,62.000000,,2013-06-17 12:33:00,
2013-06-17 07:43:00,53.0,53.0,-100.00,NE,56,2.0,9.0,100,0.01,,,0.16,62.000000,,2013-06-17 12:43:00,
2013-06-17 07:53:00,53.0,53.0,-100.00,NE,56,2.0,9.0,100,0.01,,,0.16,62.000000,,2013-06-17 12:53:00,
2013-06-17 08:01:00,53.0,53.0,-100.00,NE,56,2.0,9.0,100,0.01,,,0.16,62.000000,,2013-06-17 13:01:00,
2013-06-17 08:02:00,59.0,55.0,-100.00,East,91,3.0,7.0,86,0.00,,,0.16,316.000000,,2013-06-17 13:02:00,
2013-06-17 08:22:00,59.0,55.0,-100.00,East,91,3.0,7.0,86,0.00,,,0.16,316.000000,,2013-06-17 13:22:00,
2013-06-17 08:33:00,59.0,55.0,-100.00,East,91,3.0,7.0,86,0.00,,,0.16,316.000000,,2013-06-17 13:33:00,
2013-06-17 08:43:00,59.0,55.0,-100.00,East,91,3.0,7.0,86,0.00,,,0.16,316.000000,,2013-06-17 13:43:00,
2013-06-17 08:53:00,59.0,55.0,-100.00,East,91,3.0,7.0,86,0.00,,,0.16,316.000000,,2013-06-17 13:53:00,
2013-06-17 09:22:00,64.0,57.0,-100.00,East,88,4.0,7.0,77,0.00,,,0.16,515.000000,,2013-06-17 14:22:00,
2013-06-17 09:34:00,64.0,57.0,-100.00,East,88,4.0,7.0,77,0.00,,,0.16,515.000000,,2013-06-17 14:34:00,
2013-06-17 09:44:00,64.0,57.0,-100.00,East,88,4.0,7.0,77,0.00,,,0.16,515.000000,,2013-06-17 14:44:00,
2013-06-17 09:53:00,64.0,57.0,-100.00,East,88,4.0,7.0,77,0.00,,,0.16,515.000000,,2013-06-17 14:53:00,
2013-06-17 10:01:00,64.0,57.0,-100.00,East,88,4.0,7.0,77,0.00,,,0.16,515.000000,,2013-06-17 15:01:00,
2013-06-17 10:02:00,60.0,54.0,-100.00,NNW,345,6.0,12.0,82,0.00,,,0.16,505.000000,,2013-06-17 15:02:00,
2013-06-17 10:22:00,60.0,54.0,-100.00,NNW,345,6.0,12.0,82,0.00,,,0.16,505.000000,,2013-06-17 15:22:00,
2013-06-17 10:33:00,60.0,54.0,-100.00,NNW,345,6.0,12.0,82,0.00,,,0.16,505.000000,,2013-06-17 15:33:00,
2013-06-17 10:43:00,60.0,54.0,-100.00,NNW,345,6.0,12.0,82,0.00,,,0.16,505.000000,,2013-06-17 15:43:00,
2013-06-17 10:53:00,60.0,54.0,-100.00,NNW,345,6.0,12.0,82,0.00,,,0.16,505.000000,,2013-06-17 15:53:00,
2013-06-17 11:02:00,59.0,53.0,-100.00,NNE,19,4.0,11.0,81,0.00,,,0.16,692.000000,,2013-06-17 16:02:00,
2013-06-17 11:22:00,59.0,53.0,-100.00,NNE,19,4.0,11.0,81,0.00,,,0.16,692.000000,,2013-06-17 16:22:00,
2013-06-17 11:33:00,59.0,53.0,-100.00,NNE,19,4.0,11.0,81,0.00,,,0.16,692.000000,,2013-06-17 16:33:00,
2013-06-17 11:43:00,59.0,53.0,-100.00,NNE,19,4.0,11.0,81,0.00,,,0.16,692.000000,,2013-06-17 16:43:00,
2013-06-17 11:54:00,59.0,53.0,-100.00,NNE,19,4.0,11.0,81,0.00,,,0.16,692.000000,,2013-06-17 16:54:00,
2013-06-17 12:02:00,58.0,52.0,-100.00,North,3,5.0,12.0,81,0.00,,,0.16,710.000000,,2013-06-17 17:02:00,
2013-06-17 12:22:00,58.0,52.0,-100.00,North,3,5.0,12.0,81,0.00,,,0.16,710.000000,,2013-06-17 17:22:00,
2013-06-17 12:33:00,58.0,52.0,-100.00,North,3,5.0,12.0,81,0.00,,,0.16,710.000000,,2013-06-17 17:33:00,
2013-06-17 12:43:00,58.0,52.0,-100.00,North,3,5.0,12.0,81,0.00,,,0.16,710.000000,,2013-06-17 17:43:00,
2013-06-17 12:52:00,58.0,52.0,-100.00,North,3,5.0,12.0,81,0.00,,,0.16,710.000000,,2013-06-17 17:52:00,
2013-06-17 13:02:00,59.0,53.0,-100.00,NNW,348,6.0,12.0,80,0.00,,,0.16,498.000000,,2013-06-17 18:02:00,
2013-06-17 13:23:00,59.0,53.0,-100.00,NNW,348,6.0,12.0,80,0.00,,,0.16,498.000000,,2013-06-17 18:23:00,
2013-06-17 13:33:00,59.0,53.0,-100.00,NNW,348,6.0,12.0,80,0.00,,,0.16,498.000000,,2013-06-17 18:33:00,
2013-06-17 13:43:00,59.0,53.0,-100.00,NNW,348,6.0,12.0,80,0.00,,,0.16,498.000000,,2013-06-17 18:43:00,
2013-06-17 13:53:00,59.0,53.0,-100.00,NNW,348,6.0,12.0,80,0.00,,,0.16,498.000000,,2013-06-17 18:53:00,
2013-06-17 14:02:00,57.0,52.0,-100.00,North,10,5.0,12.0,83,0.00,,,0.16,512.000000,,2013-06-17 19:02:00,
2013-06-17 14:22:00,57.0,52.0,-100.00,North,10,5.0,12.0,83,0.00,,,0.16,512.000000,,2013-06-17 19:22:00,
2013-06-17 14:33:00,57.0,52.0,-100.00,North,10,5.0,12.0,83,0.00,,,0.16,512.000000,,2013-06-17 19:33:00,
2013-06-17 14:43:00,57.0,52.0,-100.00,North,10,5.0,12.0,83,0.00,,,0.16,512.000000,,2013-06-17 19:43:00,
2013-06-17 14:54:00,57.0,52.0,-100.00,North,10,5.0,12.0,83,0.00,,,0.16,512.000000,,2013-06-17 19:54:00,
2013-06-17 15:22:00,58.0,51.0,-100.00,NNW,342,6.0,12.0,78,0.00,,,0.12,559.000000,,2013-06-17 20:22:00,
2013-06-17 15:34:00,58.0,51.0,-100.00,NNW,342,6.0,12.0,78,0.00,,,0.12,559.000000,,2013-06-17 20:34:00,
2013-06-17 15:43:00,58.0,51.0,-100.00,NNW,342,6.0,12.0,78,0.00,,,0.12,559.000000,,2013-06-17 20:43:00,
2013-06-17 15:52:00,58.0,51.0,-100.00,NNW,342,6.0,12.0,78,0.00,,,0.12,559.000000,,2013-06-17 20:52:00,
2013-06-17 16:01:00,58.0,51.0,-100.00,NNW,342,6.0,12.0,78,0.00,,,0.12,559.000000,,2013-06-17 21:01:00,
2013-06-17 17:02:00,59.0,50.0,-100.00,North,349,6.0,14.0,71,0.00,,,0.12,558.000000,,2013-06-17 22:02:00,
2013-06-17 17:53:00,59.0,50.0,-100.00,North,349,6.0,14.0,71,0.00,,,0.12,558.000000,,2013-06-17 22:53:00,
2013-06-17 18:22:00,58.0,47.0,-100.00,North,360,4.0,14.0,67,0.00,,,0.12,559.000000,,2013-06-17 23:22:00,
2013-06-17 18:33:00,58.0,47.0,-100.00,North,360,4.0,14.0,67,0.00,,,0.12,559.000000,,2013-06-17 23:33:00,
2013-06-17 18:43:00,58.0,47.0,-100.00,North,360,4.0,14.0,67,0.00,,,0.12,559.000000,,2013-06-17 23:43:00,
2013-06-17 18:53:00,58.0,47.0,-100.00,North,360,4.0,14.0,67,0.00,,,0.12,559.000000,,2013-06-17 23:53:00,
2013-06-17 19:01:00,58.0,47.0,-100.00,North,360,4.0,14.0,67,0.00,,,0.12,559.000000,,2013-06-18 00:01:00,
2013-06-17 19:22:00,55.0,44.0,-100.00,NNE,15,5.0,12.0,67,0.00,,,0.03,370.000000,,2013-06-18 00:22:00,
2013-06-17 19:33:00,55.0,44.0,-100.00,NNE,15,5.0,12.0,67,0.00,,,0.03,370.000000,,2013-06-18 00:33:00,
2013-06-17 19:43:00,55.0,44.0,-100.00,NNE,15,5.0,12.0,67,0.00,,,0.03,370.000000,,2013-06-18 00:43:00,
2013-06-17 19:52:00,55.0,44.0,-100.00,NNE,15,5.0,12.0,67,0.00,,,0.03,370.000000,,2013-06-18 00:52:00,
2013-06-17 20:01:00,55.0,44.0,-100.00,NNE,15,5.0,12.0,67,0.00,,,0.03,370.000000,,2013-06-18 01:01:00,
2013-06-17 20:02:00,52.0,44.0,-100.00,NE,37,3.0,10.0,74,0.00,,,0.03,183.000000,,2013-06-18 01:02:00,
2013-06-17 20:23:00,52.0,44.0,-100.00,NE,37,3.0,10.0,74,0.00,,,0.03,183.000000,,2013-06-18 01:23:00,
2013-06-17 20:34:00,52.0,44.0,-100.00,NE,37,3.0,10.0,74,0.00,,,0.03,183.000000,,2013-06-18 01:34:00,
2013-06-17 20:44:00,52.0,44.0,-100.00,NE,37,3.0,10.0,74,0.00,,,0.03,183.000000,,2013-06-18 01:44:00,
2013-06-17 20:53:00,52.0,44.0,-100.00,NE,37,3.0,10.0,74,0.00,,,0.03,183.000000,,2013-06-18 01:53:00,
2013-06-17 21:02:00,47.0,44.0,-100.00,NNW,332,3.0,10.0,88,0.00,,,0.03,17.000000,,2013-06-18 02:02:00,
2013-06-17 21:23:00,47.0,44.0,-100.00,NNW,332,3.0,10.0,88,0.00,,,0.03,17.000000,,2013-06-18 02:23:00,
2013-06-17 21:34:00,47.0,44.0,-100.00,NNW,332,3.0,10.0,88,0.00,,,0.03,17.000000,,2013-06-18 02:34:00,
2013-06-17 21:43:00,47.0,44.0,-100.00,NNW,332,3.0,10.0,88,0.00,,,0.03,17.000000,,2013-06-18 02:43:00,
2013-06-17 21:53:00,47.0,44.0,-100.00,NNW,332,3.0,10.0,88,0.00,,,0.03,17.000000,,2013-06-18 02:53:00,
2013-06-17 22:02:00,43.0,42.0,-100.00,NE,41,0.0,4.0,97,0.00,,,0.03,1.000000,,2013-06-18 03:02:00,
2013-06-17 22:23:00,43.0,42.0,-100.00,NE,41,0.0,4.0,97,0.00,,,0.03,1.000000,,2013-06-18 03:23:00,
2013-06-17 22:34:00,43.0,42.0,-100.00,NE,41,0.0,4.0,97,0.00,,,0.03,1.000000,,2013-06-18 03:34:00,
2013-06-17 22:43:00,43.0,42.0,-100.00,NE,41,0.0,4.0,97,0.00,,,0.03,1.000000,,2013-06-18 03:43:00,
2013-06-17 22:53:00,43.0,42.0,-100.00,NE,41,0.0,4.0,97,0.00,,,0.03,1.000000,,2013-06-18 03:53:00,
2013-06-17 23:02:00,41.0,40.0,-100.00,North,0,0.0,4.0,98,0.00,,,0.01,0.000000,,2013-06-18 04:02:00,
2013-06-17 23:23:00,41.0,40.0,-100.00,North,0,0.0,4.0,98,0.00,,,0.01,0.000000,,2013-06-18 04:23:00,
2013-06-17 23:34:00,41.0,40.0,-100.00,North,0,0.0,4.0,98,0.00,,,0.01,0.000000,,2013-06-18 04:34:00,
2013-06-17 23:43:00,41.0,40.0,-100.00,North,0,0.0,4.0,98,0.00,,,0.01,0.000000,,2013-06-18 04:43:00,
2013-06-17 23:54:00,41.0,40.0,-100.00,North,0,0.0,4.0,98,0.00,,,0.01,0.000000,,2013-06-18 04:54:00,